createdAt,value
2023-04-16T00:00:49.912Z,99197.93
2023-04-16T00:06:07.407Z,99201.09
2023-04-16T00:11:10.686Z,99204.55
2023-04-16T00:16:13.605Z,99212.10
2023-04-16T00:21:16.450Z,99218.05
2023-04-16T00:26:19.280Z,99218.98
2023-04-16T00:31:31.153Z,99224.38
2023-04-16T00:36:34.218Z,99230.00
2023-04-16T00:41:38.858Z,99237.31
2023-04-16T00:46:42.907Z,99247.39
2023-04-16T00:51:46.439Z,99250.98
2023-04-16T00:56:50.065Z,99251.94
2023-04-16T01:01:53.049Z,99248.00
2023-04-16T01:06:56.327Z,99248.73
2023-04-16T01:11:59.203Z,99246.65
2023-04-16T01:17:03.963Z,99248.89
2023-04-16T01:22:06.857Z,99250.64
2023-04-16T01:27:09.754Z,99246.15
2023-04-16T01:32:12.776Z,99250.66
2023-04-16T01:37:18.035Z,99255.91
2023-04-16T01:42:20.932Z,99260.77
2023-04-16T01:47:23.835Z,99261.41
2023-04-16T01:52:26.992Z,99265.27
2023-04-16T01:57:29.949Z,99264.07
2023-04-16T02:02:32.964Z,99267.41
2023-04-16T02:07:36.465Z,99266.93
2023-04-16T02:12:39.500Z,99267.75
2023-04-16T02:17:42.508Z,99270.35
2023-04-16T02:22:45.464Z,99268.11
2023-04-16T02:27:48.410Z,99273.16
2023-04-16T02:32:51.272Z,99269.07
2023-04-16T02:37:54.281Z,99269.20
2023-04-16T02:42:58.100Z,99272.57
2023-04-16T02:48:01.139Z,99272.27
2023-04-16T02:53:04.537Z,99279.11
2023-04-16T02:58:07.448Z,99289.45
2023-04-16T03:03:10.376Z,99287.82
2023-04-16T03:08:13.394Z,99289.34
2023-04-16T03:13:16.249Z,99291.69
2023-04-16T03:18:19.078Z,99297.20
2023-04-16T03:23:21.934Z,99300.80
2023-04-16T03:28:24.805Z,99304.70
2023-04-16T03:33:27.729Z,99306.27
2023-04-16T03:38:30.595Z,99308.84
2023-04-16T03:43:33.867Z,99306.27
2023-04-16T03:48:37.240Z,99308.83
2023-04-16T03:53:40.077Z,99309.90
2023-04-16T03:58:42.871Z,99311.10
2023-04-16T04:03:46.189Z,99320.98
2023-04-16T04:08:49.242Z,99323.30
2023-04-16T04:13:52.683Z,99334.70
2023-04-16T04:18:55.840Z,99346.22
2023-04-16T04:23:58.832Z,99354.52
2023-04-16T04:29:01.808Z,99358.84
2023-04-16T04:34:04.901Z,99363.45
2023-04-16T04:39:07.930Z,99365.55
2023-04-16T04:44:11.082Z,99367.73
2023-04-16T04:49:13.931Z,99374.20
2023-04-16T04:54:16.768Z,99376.48
2023-04-16T04:59:21.794Z,99374.07
2023-04-16T05:04:24.733Z,99372.46
2023-04-16T05:09:27.580Z,99383.17
2023-04-16T05:14:30.590Z,99389.73
2023-04-16T05:19:33.965Z,99391.88
2023-04-16T05:24:36.799Z,99401.86
2023-04-16T05:29:39.717Z,99406.40
2023-04-16T05:34:42.575Z,99413.64
2023-04-16T05:39:45.487Z,99412.97
2023-04-16T05:44:48.348Z,99414.86
2023-04-16T05:49:51.180Z,99415.56
2023-04-16T05:54:54.015Z,99420.56
2023-04-16T05:59:56.959Z,99423.64
2023-04-16T06:04:59.787Z,99426.16
2023-04-16T06:10:02.622Z,99424.85
2023-04-16T06:15:06.795Z,99432.41
2023-04-16T06:20:11.274Z,99434.48
2023-04-16T06:25:15.218Z,99446.04
2023-04-16T06:30:20.224Z,99448.79
2023-04-16T06:35:23.071Z,99454.03
2023-04-16T06:40:26.510Z,99458.45
2023-04-16T06:45:29.468Z,99461.41
2023-04-16T06:50:32.404Z,99468.98
2023-04-16T06:55:35.241Z,99471.06
2023-04-16T07:00:38.105Z,99475.33
2023-04-16T07:05:41.098Z,99479.46
2023-04-16T07:10:43.948Z,99485.12
2023-04-16T07:15:46.751Z,99483.36
2023-04-16T07:20:49.755Z,99478.70
2023-04-16T07:25:52.647Z,99485.85
2023-04-16T07:30:55.709Z,99492.25
2023-04-16T07:35:58.579Z,99498.55
2023-04-16T07:41:02.001Z,99507.59
2023-04-16T07:46:05.009Z,99509.78
2023-04-16T07:51:08.003Z,99513.93
2023-04-16T07:56:11.032Z,99520.98
2023-04-16T08:01:14.371Z,99523.32
2023-04-16T08:06:17.219Z,99526.91
2023-04-16T08:11:20.631Z,99523.65
2023-04-16T08:16:24.261Z,99524.38
2023-04-16T08:21:30.868Z,99526.10
2023-04-16T08:26:33.699Z,99530.76
2023-04-16T08:31:36.869Z,99526.94
2023-04-16T08:36:41.311Z,99528.02
2023-04-16T08:41:47.009Z,99528.27
2023-04-16T08:46:54.861Z,99533.33
2023-04-16T08:51:57.835Z,99541.52
2023-04-16T08:57:05.596Z,99553.33
2023-04-16T09:02:12.240Z,99559.98
2023-04-16T09:07:17.022Z,99563.27
2023-04-16T09:12:24.227Z,99571.16
2023-04-16T09:17:27.861Z,99575.13
2023-04-16T09:22:30.850Z,99580.25
2023-04-16T09:27:34.041Z,99583.19
2023-04-16T09:32:36.961Z,99591.54
2023-04-16T09:37:39.826Z,99591.52
2023-04-16T09:42:42.634Z,99599.94
2023-04-16T09:47:46.471Z,99602.18
2023-04-16T09:52:51.634Z,99603.15
2023-04-16T09:58:01.985Z,99608.63
2023-04-16T10:03:09.117Z,99616.40
2023-04-16T10:08:13.803Z,99617.48
2023-04-16T10:13:19.275Z,99619.22
2023-04-16T10:18:23.251Z,99620.68
2023-04-16T10:23:27.064Z,99615.16
2023-04-16T10:28:30.774Z,99613.60
2023-04-16T10:33:41.471Z,99622.88
2023-04-16T10:38:52.554Z,99620.20
2023-04-16T10:44:06.607Z,99616.53
2023-04-16T10:49:19.382Z,99614.92
2023-04-16T10:54:31.141Z,99619.50
2023-04-16T10:59:37.521Z,99618.04
2023-04-16T11:04:50.169Z,99619.77
2023-04-16T11:10:12.869Z,99620.02
2023-04-16T11:15:19.743Z,99616.75
2023-04-16T11:20:27.969Z,99618.21
2023-04-16T11:25:31.864Z,99621.47
2023-04-16T11:30:38.203Z,99617.43
2023-04-16T11:35:41.685Z,99612.91
2023-04-16T11:40:44.686Z,99617.59
2023-04-16T11:46:07.887Z,99616.29
2023-04-16T11:51:16.835Z,99611.66
2023-04-16T11:56:30.113Z,99608.90
2023-04-16T12:01:39.728Z,99609.95
2023-04-16T12:07:12.824Z,99604.54
2023-04-16T12:12:31.452Z,99609.91
2023-04-16T12:17:36.599Z,99606.71
2023-04-16T12:22:45.041Z,99599.61
2023-04-16T12:27:53.819Z,99599.56
2023-04-16T12:33:18.608Z,99592.16
2023-04-16T12:38:24.064Z,99583.94
2023-04-16T12:43:27.726Z,99582.39
2023-04-16T12:48:32.432Z,99582.77
2023-04-16T12:53:35.246Z,99577.27
2023-04-16T12:58:38.035Z,99579.20
2023-04-16T13:03:41.618Z,99578.46
2023-04-16T13:08:45.674Z,99573.75
2023-04-16T13:13:48.482Z,99577.80
2023-04-16T13:18:51.328Z,99578.50
2023-04-16T13:23:54.189Z,99572.64
2023-04-16T13:28:57.048Z,99568.93
2023-04-16T13:34:01.611Z,99563.72
2023-04-16T13:39:05.439Z,99562.36
2023-04-16T13:44:08.294Z,99565.25
2023-04-16T13:49:11.297Z,99568.19
2023-04-16T13:54:14.482Z,99570.80
2023-04-16T13:59:18.200Z,99567.29
2023-04-16T14:04:22.537Z,99566.95
2023-04-16T14:09:25.548Z,99571.75
2023-04-16T14:14:29.024Z,99570.25
2023-04-16T14:19:31.782Z,99572.30
2023-04-16T14:24:34.653Z,99570.92
2023-04-16T14:29:37.609Z,99572.70
2023-04-16T14:34:40.593Z,99571.46
2023-04-16T14:39:43.527Z,99570.60
2023-04-16T14:44:46.391Z,99570.04
2023-04-16T14:49:49.231Z,99568.84
2023-04-16T14:54:52.651Z,99571.92
2023-04-16T14:59:55.502Z,99575.92
2023-04-16T15:04:58.302Z,99576.90
2023-04-16T15:10:01.105Z,99577.48
2023-04-16T15:15:08.675Z,99581.35
2023-04-16T15:20:12.338Z,99578.48
2023-04-16T15:25:15.218Z,99583.88
2023-04-16T15:30:18.940Z,99584.11
2023-04-16T15:35:21.978Z,99583.83
2023-04-16T15:40:25.379Z,99587.86
2023-04-16T15:45:28.265Z,99591.23
2023-04-16T15:50:32.064Z,99594.34
2023-04-16T15:55:35.965Z,99594.89
2023-04-16T16:00:39.190Z,99596.33
2023-04-16T16:05:42.079Z,99600.15
2023-04-16T16:10:45.024Z,99601.52
2023-04-16T16:15:47.886Z,99605.91
2023-04-16T16:20:52.958Z,99602.57
2023-04-16T16:25:56.144Z,99602.06
2023-04-16T16:31:01.346Z,99611.54
2023-04-16T16:36:06.273Z,99615.41
2023-04-16T16:41:09.176Z,99620.48
2023-04-16T16:46:12.075Z,99624.91
2023-04-16T16:51:18.862Z,99629.80
2023-04-16T16:56:21.871Z,99633.41
2023-04-16T17:01:28.349Z,99640.44
2023-04-16T17:06:33.422Z,99646.36
2023-04-16T17:11:36.801Z,99651.45
2023-04-16T17:16:39.712Z,99657.20
2023-04-16T17:21:42.777Z,99660.50
2023-04-16T17:26:46.303Z,99665.42
2023-04-16T17:31:49.063Z,99667.65
2023-04-16T17:36:51.914Z,99668.41
2023-04-16T17:41:58.541Z,99675.86
2023-04-16T17:47:02.241Z,99675.19
2023-04-16T17:52:06.566Z,99678.42
2023-04-16T17:57:09.495Z,99683.02
2023-04-16T18:02:12.395Z,99683.89
2023-04-16T18:07:15.830Z,99684.03
2023-04-16T18:12:18.682Z,99689.82
2023-04-16T18:17:24.388Z,99698.13
2023-04-16T18:22:28.615Z,99701.98
2023-04-16T18:27:31.528Z,99706.98
2023-04-16T18:32:36.654Z,99708.65
2023-04-16T18:37:40.463Z,99713.45
2023-04-16T18:42:43.395Z,99715.20
2023-04-16T18:47:47.814Z,99715.65
2023-04-16T18:52:51.016Z,99717.65
2023-04-16T18:57:55.249Z,99710.42
2023-04-16T19:02:58.118Z,99715.48
2023-04-16T19:08:01.425Z,99713.48
2023-04-16T19:13:04.344Z,99717.56
2023-04-16T19:18:07.246Z,99718.36
2023-04-16T19:23:10.451Z,99722.73
2023-04-16T19:28:13.253Z,99728.31
2023-04-16T19:33:16.053Z,99734.88
2023-04-16T19:38:18.831Z,99736.59
2023-04-16T19:43:21.718Z,99736.42
2023-04-16T19:48:24.659Z,99736.92
2023-04-16T19:53:27.501Z,99739.80
2023-04-16T19:58:30.314Z,99738.73
2023-04-16T20:03:33.188Z,99738.43
2023-04-16T20:08:36.953Z,99730.84
2023-04-16T20:13:39.694Z,99736.05
2023-04-16T20:18:42.593Z,99741.92
2023-04-16T20:23:45.778Z,99742.16
2023-04-16T20:28:48.607Z,99741.83
2023-04-16T20:33:51.472Z,99738.84
2023-04-16T20:38:54.321Z,99743.70
2023-04-16T20:43:57.155Z,99744.30
2023-04-16T20:49:01.296Z,99741.70
2023-04-16T20:54:04.262Z,99744.04
2023-04-16T20:59:07.183Z,99744.80
2023-04-16T21:04:10.179Z,99749.96
2023-04-16T21:09:13.393Z,99749.17
2023-04-16T21:14:16.453Z,99749.30
2023-04-16T21:19:19.307Z,99750.55
2023-04-16T21:24:22.135Z,99753.17
2023-04-16T21:29:24.968Z,99752.86
2023-04-16T21:34:27.815Z,99752.95
2023-04-16T21:39:31.276Z,99757.48
2023-04-16T21:44:34.129Z,99759.38
2023-04-16T21:49:36.948Z,99756.56
2023-04-16T21:54:42.598Z,99751.34
2023-04-16T21:59:45.476Z,99750.61
2023-04-16T22:04:48.860Z,99745.47
2023-04-16T22:09:53.370Z,99746.48
2023-04-16T22:15:02.331Z,99754.13
2023-04-16T22:20:14.752Z,99752.92
2023-04-16T22:25:17.580Z,99750.08
2023-04-16T22:30:20.734Z,99744.70
2023-04-16T22:35:23.560Z,99747.11
2023-04-16T22:40:26.409Z,99745.90
2023-04-16T22:45:29.436Z,99744.96
2023-04-16T22:50:32.367Z,99745.39
2023-04-16T22:55:35.183Z,99744.59
2023-04-16T23:00:38.124Z,99743.74
2023-04-16T23:05:40.964Z,99742.48
2023-04-16T23:10:44.343Z,99743.84
2023-04-16T23:15:47.470Z,99745.58
2023-04-16T23:20:54.038Z,99746.96
2023-04-16T23:25:56.848Z,99746.09
2023-04-16T23:30:59.760Z,99751.82
2023-04-16T23:36:02.604Z,99753.86
2023-04-16T23:41:05.580Z,99750.98
2023-04-16T23:46:08.546Z,99755.69
2023-04-16T23:51:11.640Z,99755.20
2023-04-16T23:56:15.502Z,99754.34
